createdAt,value
2018-05-09T00:01:29.865Z,45.00
2018-05-09T00:05:32.511Z,44.90
2018-05-09T00:09:35.143Z,45.00
2018-05-09T00:13:37.748Z,45.10
2018-05-09T00:17:40.381Z,45.10
2018-05-09T00:21:43.784Z,45.30
2018-05-09T00:25:46.456Z,45.40
2018-05-09T00:29:49.093Z,45.40
2018-05-09T00:33:51.700Z,45.30
2018-05-09T00:37:54.345Z,45.30
2018-05-09T00:41:57.807Z,45.50
2018-05-09T00:46:00.444Z,45.50
2018-05-09T00:50:03.912Z,45.50
2018-05-09T00:54:18.560Z,45.50
2018-05-09T00:58:21.196Z,45.50
2018-05-09T01:02:24.605Z,45.70
2018-05-09T01:06:28.009Z,45.70
2018-05-09T01:10:31.475Z,45.80
2018-05-09T01:14:34.077Z,45.70
2018-05-09T01:22:45.731Z,45.70
2018-05-09T01:26:49.146Z,45.90
2018-05-09T01:30:52.612Z,46.00
2018-05-09T01:34:55.269Z,46.00
2018-05-09T01:38:57.860Z,46.20
2018-05-09T01:43:00.643Z,46.20
2018-05-09T01:47:03.335Z,46.10
2018-05-09T01:51:05.971Z,46.20
2018-05-09T01:55:09.371Z,46.20
2018-05-09T01:59:12.800Z,46.00
2018-05-09T02:03:15.444Z,45.90
2018-05-09T02:07:18.135Z,46.00
2018-05-09T02:11:20.781Z,46.30
2018-05-09T02:15:24.181Z,46.20
2018-05-09T02:19:27.586Z,46.30
2018-05-09T02:23:30.986Z,46.30
2018-05-09T02:27:34.396Z,46.90
2018-05-09T02:31:37.803Z,46.30
2018-05-09T02:35:41.217Z,46.40
2018-05-09T02:39:43.867Z,46.30
2018-05-09T02:43:46.603Z,46.20
2018-05-09T02:47:49.236Z,46.30
2018-05-09T02:51:51.923Z,46.30
2018-05-09T02:55:54.520Z,46.30
2018-05-09T02:59:57.165Z,46.30
2018-05-09T03:03:59.893Z,46.30
2018-05-09T03:08:02.537Z,46.10
2018-05-09T03:12:05.180Z,46.20
2018-05-09T03:16:07.792Z,46.20
2018-05-09T03:20:11.213Z,46.40
2018-05-09T03:24:13.852Z,46.30
2018-05-09T03:28:16.497Z,46.50
2018-05-09T03:32:19.211Z,46.40
2018-05-09T03:36:21.816Z,46.60
2018-05-09T03:40:24.464Z,46.50
2018-05-09T03:44:27.101Z,46.70
2018-05-09T03:52:39.534Z,47.10
2018-05-09T03:56:42.168Z,46.90
2018-05-09T04:00:45.639Z,46.80
2018-05-09T04:05:00.220Z,46.80
2018-05-09T04:09:14.557Z,47.30
2018-05-09T04:13:17.204Z,47.10
2018-05-09T04:17:19.824Z,47.40
2018-05-09T04:21:22.512Z,47.20
2018-05-09T04:25:25.148Z,47.10
2018-05-09T04:29:27.789Z,47.20
2018-05-09T04:33:30.388Z,47.10
2018-05-09T04:41:42.181Z,47.60
2018-05-09T04:45:44.833Z,47.50
2018-05-09T04:49:47.502Z,47.20
2018-05-09T04:53:50.161Z,47.50
2018-05-09T04:57:52.864Z,47.40
2018-05-09T05:01:55.500Z,47.50
2018-05-09T05:05:58.141Z,47.50
2018-05-09T05:10:00.753Z,47.60
2018-05-09T05:14:03.392Z,47.80
2018-05-09T05:18:06.035Z,47.60
2018-05-09T05:22:08.675Z,47.90
2018-05-09T05:26:11.323Z,48.50
2018-05-09T05:30:13.972Z,47.70
2018-05-09T05:34:16.614Z,48.20
2018-05-09T05:38:20.029Z,48.20
2018-05-09T05:42:22.704Z,48.20
2018-05-09T05:46:26.077Z,48.70
2018-05-09T05:50:28.716Z,48.60
2018-05-09T05:54:31.355Z,48.70
2018-05-09T05:58:33.999Z,48.90
2018-05-09T06:02:36.636Z,49.30
2018-05-09T06:06:39.248Z,49.80
2018-05-09T06:10:42.714Z,50.60
2018-05-09T06:14:45.353Z,50.50
2018-05-09T06:18:48.762Z,49.70
2018-05-09T06:22:52.168Z,50.10
2018-05-09T06:26:54.828Z,50.00
2018-05-09T06:30:57.480Z,52.80
2018-05-09T06:35:00.119Z,52.90
2018-05-09T06:39:04.257Z,51.00
2018-05-09T06:43:08.326Z,48.60
2018-05-09T06:47:11.597Z,48.60
2018-05-09T06:51:14.276Z,47.70
2018-05-09T06:55:16.921Z,46.50
2018-05-09T06:59:19.558Z,45.80
2018-05-09T07:03:22.246Z,44.50
2018-05-09T07:07:24.901Z,43.70
2018-05-09T07:11:27.543Z,43.50
2018-05-09T07:15:30.184Z,42.80
2018-05-09T07:19:33.639Z,41.50
2018-05-09T07:23:36.246Z,41.40
2018-05-09T07:27:38.895Z,41.30
2018-05-09T07:31:41.529Z,40.60
2018-05-09T07:35:44.169Z,40.50
2018-05-09T07:39:46.827Z,40.00
2018-05-09T07:43:49.424Z,38.60
2018-05-09T07:47:52.924Z,38.70
2018-05-09T07:51:55.488Z,38.60
2018-05-09T07:55:58.126Z,38.50
2018-05-09T08:00:00.830Z,38.20
2018-05-09T08:04:04.200Z,37.90
2018-05-09T08:08:07.627Z,38.00
2018-05-09T08:12:10.266Z,38.10
2018-05-09T08:16:13.734Z,37.00
2018-05-09T08:20:16.380Z,36.90
2018-05-09T08:24:18.997Z,36.60
2018-05-09T08:28:21.640Z,36.40
2018-05-09T08:32:25.091Z,36.70
2018-05-09T08:36:27.768Z,36.50
2018-05-09T08:40:30.423Z,36.60
2018-05-09T08:44:33.104Z,36.80
2018-05-09T08:48:35.790Z,37.30
2018-05-09T08:52:38.439Z,36.50
2018-05-09T08:56:41.081Z,35.70
2018-05-09T09:00:44.490Z,36.80
2018-05-09T09:04:47.127Z,36.70
2018-05-09T09:08:49.766Z,38.00
2018-05-09T09:12:52.419Z,39.00
2018-05-09T09:16:55.827Z,40.40
2018-05-09T09:20:58.528Z,40.30
2018-05-09T09:25:01.877Z,41.50
2018-05-09T09:29:05.368Z,41.20
2018-05-09T09:33:07.945Z,41.20
2018-05-09T09:37:10.622Z,41.30
2018-05-09T09:41:13.255Z,41.60
2018-05-09T09:45:16.712Z,41.90
2018-05-09T09:49:19.361Z,41.90
2018-05-09T09:53:22.004Z,42.20
2018-05-09T09:57:24.615Z,42.20
2018-05-09T10:01:30.053Z,42.50
2018-05-09T10:05:33.111Z,41.80
2018-05-09T10:09:36.821Z,41.90
2018-05-09T10:13:39.679Z,41.40
2018-05-09T10:17:45.586Z,41.30
2018-05-09T10:25:57.506Z,42.30
2018-05-09T10:30:00.209Z,41.60
2018-05-09T10:34:02.846Z,41.90
2018-05-09T10:38:05.464Z,42.20
2018-05-09T10:42:08.112Z,41.30
2018-05-09T10:46:10.818Z,42.10
2018-05-09T10:50:14.239Z,42.10
2018-05-09T10:54:16.889Z,42.10
2018-05-09T10:58:19.492Z,41.80
2018-05-09T11:02:22.155Z,41.60
2018-05-09T11:06:24.802Z,42.40
2018-05-09T11:10:27.461Z,42.10
2018-05-09T11:14:30.888Z,41.60
2018-05-09T11:18:33.566Z,41.40
2018-05-09T11:22:36.971Z,41.40
2018-05-09T11:26:40.432Z,41.30
2018-05-09T11:30:43.080Z,41.20
2018-05-09T11:34:45.748Z,40.90
2018-05-09T11:38:49.151Z,42.10
2018-05-09T11:42:52.621Z,42.00
2018-05-09T11:46:55.261Z,42.00
2018-05-09T11:50:58.686Z,41.00
2018-05-09T11:55:01.348Z,40.90
2018-05-09T11:59:04.753Z,42.00
2018-05-09T12:03:08.166Z,41.20
2018-05-09T12:07:11.623Z,41.10
2018-05-09T12:11:14.232Z,41.00
2018-05-09T12:15:16.969Z,41.90
2018-05-09T12:19:19.670Z,41.50
2018-05-09T12:23:22.349Z,40.50
2018-05-09T12:27:24.989Z,41.40
2018-05-09T12:31:28.383Z,39.90
2018-05-09T12:35:31.043Z,39.50
2018-05-09T12:39:33.676Z,38.40
2018-05-09T12:43:36.360Z,39.60
2018-05-09T12:47:39.803Z,39.30
2018-05-09T12:51:43.166Z,39.00
2018-05-09T12:55:45.801Z,38.90
2018-05-09T12:59:48.449Z,39.70
2018-05-09T13:03:51.093Z,38.60
2018-05-09T13:07:53.793Z,38.60
2018-05-09T13:15:59.195Z,37.70
2018-05-09T13:20:01.846Z,39.50
2018-05-09T13:24:04.553Z,39.20
2018-05-09T13:28:07.159Z,37.10
2018-05-09T13:32:09.801Z,38.30
2018-05-09T13:36:12.521Z,37.00
2018-05-09T13:44:11.827Z,37.50
2018-05-09T13:48:14.436Z,37.50
2018-05-09T13:52:17.842Z,38.50
2018-05-09T13:56:20.485Z,38.40
2018-05-09T14:00:23.897Z,39.60
2018-05-09T14:04:27.296Z,39.20
2018-05-09T14:08:29.904Z,39.00
2018-05-09T14:12:33.307Z,38.70
2018-05-09T14:16:35.984Z,38.60
2018-05-09T14:20:39.383Z,38.60
2018-05-09T14:24:42.020Z,38.60
2018-05-09T14:28:44.638Z,39.30
2018-05-09T14:32:47.288Z,39.90
2018-05-09T14:36:49.921Z,40.90
2018-05-09T14:40:52.555Z,41.20
2018-05-09T14:44:55.188Z,40.60
2018-05-09T14:48:57.795Z,40.10
2018-05-09T14:53:00.428Z,41.10
2018-05-09T14:57:03.067Z,39.90
2018-05-09T15:01:05.699Z,40.30
2018-05-09T15:05:08.328Z,40.30
2018-05-09T15:09:10.925Z,40.10
2018-05-09T15:13:13.569Z,39.70
2018-05-09T15:17:16.209Z,40.20
2018-05-09T15:21:18.858Z,40.30
2018-05-09T15:25:21.571Z,41.00
2018-05-09T15:29:24.131Z,40.80
2018-05-09T15:33:26.775Z,40.30
2018-05-09T15:37:30.242Z,40.80
2018-05-09T15:41:32.880Z,40.70
2018-05-09T15:45:36.289Z,41.70
2018-05-09T15:49:39.682Z,41.60
2018-05-09T15:53:43.083Z,40.60
2018-05-09T15:57:45.721Z,40.50
2018-05-09T16:01:48.361Z,41.10
2018-05-09T16:05:51.763Z,42.30
2018-05-09T16:09:54.368Z,41.60
2018-05-09T16:13:57.771Z,42.20
2018-05-09T16:18:01.177Z,41.80
2018-05-09T16:22:04.600Z,41.70
2018-05-09T16:26:07.260Z,41.70
2018-05-09T16:30:09.911Z,41.80
2018-05-09T16:34:12.594Z,42.10
2018-05-09T16:38:15.335Z,41.60
2018-05-09T16:42:17.934Z,42.30
2018-05-09T16:46:21.360Z,42.80
2018-05-09T16:50:23.981Z,42.70
2018-05-09T16:54:27.421Z,43.00
2018-05-09T16:58:30.090Z,42.90
2018-05-09T17:02:33.542Z,43.20
2018-05-09T17:06:36.179Z,43.10
2018-05-09T17:10:38.780Z,43.40
2018-05-09T17:14:41.423Z,43.10
2018-05-09T17:18:44.064Z,43.00
2018-05-09T17:22:46.707Z,42.80
2018-05-09T17:26:49.399Z,42.80
2018-05-09T17:30:51.995Z,43.00
2018-05-09T17:34:54.628Z,43.20
2018-05-09T17:38:58.040Z,43.80
2018-05-09T17:45:45.875Z,43.50
2018-05-09T17:49:48.517Z,43.30
2018-05-09T17:53:51.156Z,43.30
2018-05-09T17:57:53.887Z,43.30
2018-05-09T18:01:56.589Z,43.50
2018-05-09T18:05:59.193Z,43.90
2018-05-09T18:10:01.843Z,44.50
2018-05-09T18:14:04.540Z,43.90
2018-05-09T18:18:07.176Z,44.30
2018-05-09T18:22:09.811Z,44.00
2018-05-09T18:26:12.468Z,45.00
2018-05-09T18:30:15.161Z,44.40
2018-05-09T18:34:18.573Z,45.30
2018-05-09T18:38:22.149Z,45.20
2018-05-09T18:42:24.789Z,45.00
2018-05-09T18:46:27.558Z,44.80
2018-05-09T18:50:30.138Z,45.00
2018-05-09T18:54:32.772Z,44.90
2018-05-09T18:58:35.403Z,44.70
2018-05-09T19:06:47.667Z,44.70
2018-05-09T19:10:51.065Z,44.90
2018-05-09T19:14:53.700Z,44.80
2018-05-09T19:18:56.336Z,44.70
2018-05-09T19:22:58.986Z,44.70
2018-05-09T19:27:01.601Z,45.20
2018-05-09T19:31:04.293Z,44.90
2018-05-09T19:35:06.933Z,44.90
2018-05-09T19:39:09.580Z,44.80
2018-05-09T19:43:12.220Z,44.70
2018-05-09T19:47:14.828Z,44.90
2018-05-09T19:51:17.471Z,45.00
2018-05-09T19:55:20.112Z,44.90
2018-05-09T19:59:22.757Z,45.10
2018-05-09T20:03:25.455Z,44.90
2018-05-09T20:07:28.055Z,44.90
2018-05-09T20:11:30.758Z,45.30
2018-05-09T20:15:33.456Z,45.60
2018-05-09T20:19:36.088Z,45.60
2018-05-09T20:23:38.789Z,45.60
2018-05-09T20:27:41.388Z,46.80
2018-05-09T20:31:56.987Z,46.00
2018-05-09T20:35:59.693Z,47.10
2018-05-09T20:40:02.334Z,46.40
2018-05-09T20:44:04.975Z,46.70
2018-05-09T20:48:07.604Z,46.80
2018-05-09T20:52:11.015Z,46.30
2018-05-09T20:56:13.657Z,46.30
2018-05-09T21:00:16.293Z,46.80
2018-05-09T21:04:18.933Z,46.90
2018-05-09T21:08:21.535Z,46.80
2018-05-09T21:12:24.231Z,46.50
2018-05-09T21:16:26.867Z,46.50
2018-05-09T21:20:29.512Z,46.60
2018-05-09T21:24:32.917Z,47.10
2018-05-09T21:28:36.290Z,47.00
2018-05-09T21:32:38.980Z,47.40
2018-05-09T21:36:42.475Z,47.20
2018-05-09T21:40:45.182Z,47.20
2018-05-09T21:44:47.783Z,47.00
2018-05-09T21:48:50.386Z,47.10
2018-05-09T21:52:53.791Z,46.90
2018-05-09T21:56:57.201Z,47.30
2018-05-09T22:01:00.671Z,46.80
2018-05-09T22:05:03.312Z,46.70
2018-05-09T22:09:06.676Z,46.80
2018-05-09T22:13:09.316Z,46.80
2018-05-09T22:17:11.997Z,46.80
2018-05-09T22:21:14.640Z,46.90
2018-05-09T22:25:17.273Z,46.80
2018-05-09T22:29:19.939Z,46.80
2018-05-09T22:33:22.600Z,46.80
2018-05-09T22:37:25.244Z,46.70
2018-05-09T22:41:27.885Z,46.80
2018-05-09T22:45:30.580Z,47.40
2018-05-09T22:49:33.184Z,46.80
2018-05-09T22:53:36.605Z,46.80
2018-05-09T22:57:40.009Z,46.80
2018-05-09T23:01:43.412Z,47.00
2018-05-09T23:05:46.819Z,47.00
2018-05-09T23:09:50.183Z,47.10
2018-05-09T23:13:52.876Z,47.10
2018-05-09T23:17:56.317Z,47.10
2018-05-09T23:21:59.724Z,47.20
2018-05-09T23:26:03.130Z,47.20
2018-05-09T23:30:06.492Z,47.20
2018-05-09T23:34:09.937Z,47.20
2018-05-09T23:38:13.336Z,47.30
2018-05-09T23:42:15.982Z,47.30
2018-05-09T23:46:18.620Z,47.50
2018-05-09T23:50:21.996Z,48.60
2018-05-09T23:54:24.638Z,48.60
2018-05-09T23:58:27.276Z,48.30
